sensor_id;sensor_type;location;lat;lon;timestamp;temperature;humidity
2997;DHT22;1508;48.744;9.110;2023-04-06T00:01:29;0.50;99.90
2997;DHT22;1508;48.744;9.110;2023-04-06T00:04:15;0.40;99.90
2997;DHT22;1508;48.744;9.110;2023-04-06T00:07:01;0.40;99.90
2997;DHT22;1508;48.744;9.110;2023-04-06T00:09:47;0.40;99.90
2997;DHT22;1508;48.744;9.110;2023-04-06T00:12:33;0.50;99.90
2997;DHT22;1508;48.744;9.110;2023-04-06T00:15:19;0.50;99.90
2997;DHT22;1508;48.744;9.110;2023-04-06T00:18:04;0.50;99.90
2997;DHT22;1508;48.744;9.110;2023-04-06T00:20:50;0.50;99.90
2997;DHT22;1508;48.744;9.110;2023-04-06T00:23:36;0.40;99.90
2997;DHT22;1508;48.744;9.110;2023-04-06T00:26:22;0.30;99.90
2997;DHT22;1508;48.744;9.110;2023-04-06T00:29:07;0.20;99.90
2997;DHT22;1508;48.744;9.110;2023-04-06T00:31:53;0.10;99.90
2997;DHT22;1508;48.744;9.110;2023-04-06T00:34:39;0.10;99.90
2997;DHT22;1508;48.744;9.110;2023-04-06T00:37:24;0.10;99.90
2997;DHT22;1508;48.744;9.110;2023-04-06T00:40:10;0.10;99.90
2997;DHT22;1508;48.744;9.110;2023-04-06T00:42:56;0.10;99.90
2997;DHT22;1508;48.744;9.110;2023-04-06T00:45:42;0.10;99.90
2997;DHT22;1508;48.744;9.110;2023-04-06T00:48:28;0.20;99.90
2997;DHT22;1508;48.744;9.110;2023-04-06T00:51:13;0.20;99.90
2997;DHT22;1508;48.744;9.110;2023-04-06T00:53:59;0.30;99.90
2997;DHT22;1508;48.744;9.110;2023-04-06T00:56:45;0.40;99.90
2997;DHT22;1508;48.744;9.110;2023-04-06T00:59:31;0.50;99.90
2997;DHT22;1508;48.744;9.110;2023-04-06T01:02:16;0.50;99.90
2997;DHT22;1508;48.744;9.110;2023-04-06T01:05:02;0.60;99.90
2997;DHT22;1508;48.744;9.110;2023-04-06T01:07:48;0.60;99.90
2997;DHT22;1508;48.744;9.110;2023-04-06T01:10:34;0.60;99.90
2997;DHT22;1508;48.744;9.110;2023-04-06T01:13:19;0.70;99.90
2997;DHT22;1508;48.744;9.110;2023-04-06T01:16:05;0.80;99.90
2997;DHT22;1508;48.744;9.110;2023-04-06T01:18:51;0.80;99.90
2997;DHT22;1508;48.744;9.110;2023-04-06T01:21:37;0.70;99.90
2997;DHT22;1508;48.744;9.110;2023-04-06T01:24:23;0.70;99.90
2997;DHT22;1508;48.744;9.110;2023-04-06T01:27:09;0.60;99.90
2997;DHT22;1508;48.744;9.110;2023-04-06T01:29:55;0.60;99.90
2997;DHT22;1508;48.744;9.110;2023-04-06T01:32:40;0.60;99.90
2997;DHT22;1508;48.744;9.110;2023-04-06T01:35:26;0.60;99.90
2997;DHT22;1508;48.744;9.110;2023-04-06T01:38:12;0.60;99.90
2997;DHT22;1508;48.744;9.110;2023-04-06T01:40:58;0.50;99.90
2997;DHT22;1508;48.744;9.110;2023-04-06T01:43:44;0.40;99.90
2997;DHT22;1508;48.744;9.110;2023-04-06T01:46:30;0.40;99.90
2997;DHT22;1508;48.744;9.110;2023-04-06T01:49:16;0.20;99.90
2997;DHT22;1508;48.744;9.110;2023-04-06T01:52:01;0.00;99.90
2997;DHT22;1508;48.744;9.110;2023-04-06T01:54:47;0.00;99.90
2997;DHT22;1508;48.744;9.110;2023-04-06T01:57:33;0.00;99.90
2997;DHT22;1508;48.744;9.110;2023-04-06T02:00:19;0.10;99.90
2997;DHT22;1508;48.744;9.110;2023-04-06T02:03:05;0.00;99.90
2997;DHT22;1508;48.744;9.110;2023-04-06T02:05:50;-0.10;99.90
2997;DHT22;1508;48.744;9.110;2023-04-06T02:08:36;-0.20;99.90
2997;DHT22;1508;48.744;9.110;2023-04-06T02:11:22;-0.20;99.90
2997;DHT22;1508;48.744;9.110;2023-04-06T02:14:08;-0.20;99.90
2997;DHT22;1508;48.744;9.110;2023-04-06T02:16:53;-0.20;99.90
2997;DHT22;1508;48.744;9.110;2023-04-06T02:19:39;-0.20;99.90
2997;DHT22;1508;48.744;9.110;2023-04-06T02:22:25;-0.20;99.90
2997;DHT22;1508;48.744;9.110;2023-04-06T02:25:11;-0.20;99.90
2997;DHT22;1508;48.744;9.110;2023-04-06T02:27:56;-0.30;99.90
2997;DHT22;1508;48.744;9.110;2023-04-06T02:30:42;-0.30;99.90
2997;DHT22;1508;48.744;9.110;2023-04-06T02:33:28;-0.20;99.90
2997;DHT22;1508;48.744;9.110;2023-04-06T02:36:13;-0.20;99.90
2997;DHT22;1508;48.744;9.110;2023-04-06T02:38:59;-0.20;99.90
2997;DHT22;1508;48.744;9.110;2023-04-06T02:41:45;-0.30;99.90
2997;DHT22;1508;48.744;9.110;2023-04-06T02:44:31;-0.30;99.90
2997;DHT22;1508;48.744;9.110;2023-04-06T02:47:16;-0.30;99.90
2997;DHT22;1508;48.744;9.110;2023-04-06T02:50:02;-0.30;99.90
2997;DHT22;1508;48.744;9.110;2023-04-06T02:52:48;-0.30;99.90
2997;DHT22;1508;48.744;9.110;2023-04-06T02:55:34;-0.30;99.90
2997;DHT22;1508;48.744;9.110;2023-04-06T02:58:19;-0.30;99.90
2997;DHT22;1508;48.744;9.110;2023-04-06T03:01:05;-0.30;99.90
2997;DHT22;1508;48.744;9.110;2023-04-06T03:03:51;-0.30;99.90
2997;DHT22;1508;48.744;9.110;2023-04-06T03:06:37;-0.20;99.90
2997;DHT22;1508;48.744;9.110;2023-04-06T03:09:22;-0.20;99.90
2997;DHT22;1508;48.744;9.110;2023-04-06T03:12:08;-0.20;99.90
2997;DHT22;1508;48.744;9.110;2023-04-06T03:14:54;-0.10;99.90
2997;DHT22;1508;48.744;9.110;2023-04-06T03:17:40;-0.20;99.90
2997;DHT22;1508;48.744;9.110;2023-04-06T03:20:25;-0.10;99.90
2997;DHT22;1508;48.744;9.110;2023-04-06T03:23:11;-0.10;99.90
2997;DHT22;1508;48.744;9.110;2023-04-06T03:25:57;0.00;99.90
2997;DHT22;1508;48.744;9.110;2023-04-06T03:28:42;0.10;99.90
2997;DHT22;1508;48.744;9.110;2023-04-06T03:31:28;0.40;99.90
2997;DHT22;1508;48.744;9.110;2023-04-06T03:34:14;0.60;99.90
2997;DHT22;1508;48.744;9.110;2023-04-06T03:37:00;0.70;99.90
2997;DHT22;1508;48.744;9.110;2023-04-06T03:39:45;0.80;99.90
2997;DHT22;1508;48.744;9.110;2023-04-06T03:42:31;0.90;99.90
2997;DHT22;1508;48.744;9.110;2023-04-06T03:45:17;0.90;99.90
2997;DHT22;1508;48.744;9.110;2023-04-06T03:48:03;1.00;99.90
2997;DHT22;1508;48.744;9.110;2023-04-06T03:50:49;1.00;99.90
2997;DHT22;1508;48.744;9.110;2023-04-06T03:53:34;0.90;99.90
2997;DHT22;1508;48.744;9.110;2023-04-06T03:56:20;0.90;99.90
2997;DHT22;1508;48.744;9.110;2023-04-06T03:59:06;0.90;99.90
2997;DHT22;1508;48.744;9.110;2023-04-06T04:01:52;1.00;99.90
2997;DHT22;1508;48.744;9.110;2023-04-06T04:04:37;1.00;99.90
2997;DHT22;1508;48.744;9.110;2023-04-06T04:07:23;1.10;99.90
2997;DHT22;1508;48.744;9.110;2023-04-06T04:10:09;1.20;99.90
2997;DHT22;1508;48.744;9.110;2023-04-06T04:12:55;1.30;99.90
2997;DHT22;1508;48.744;9.110;2023-04-06T04:15:40;1.30;99.90
2997;DHT22;1508;48.744;9.110;2023-04-06T04:18:26;1.30;99.90
2997;DHT22;1508;48.744;9.110;2023-04-06T04:21:12;1.30;99.90
2997;DHT22;1508;48.744;9.110;2023-04-06T04:23:58;1.30;99.90
2997;DHT22;1508;48.744;9.110;2023-04-06T04:26:43;1.30;99.90
2997;DHT22;1508;48.744;9.110;2023-04-06T04:29:29;1.30;99.90
2997;DHT22;1508;48.744;9.110;2023-04-06T04:32:15;1.20;99.90
2997;DHT22;1508;48.744;9.110;2023-04-06T04:35:01;1.10;99.90
2997;DHT22;1508;48.744;9.110;2023-04-06T04:37:46;1.10;99.90
2997;DHT22;1508;48.744;9.110;2023-04-06T04:40:32;1.10;99.90
2997;DHT22;1508;48.744;9.110;2023-04-06T04:43:18;1.20;99.90
2997;DHT22;1508;48.744;9.110;2023-04-06T04:46:04;1.10;99.90
2997;DHT22;1508;48.744;9.110;2023-04-06T04:48:50;1.10;99.90
2997;DHT22;1508;48.744;9.110;2023-04-06T04:51:36;1.20;99.90
2997;DHT22;1508;48.744;9.110;2023-04-06T04:54:21;1.20;99.90
2997;DHT22;1508;48.744;9.110;2023-04-06T04:57:07;1.30;99.90
2997;DHT22;1508;48.744;9.110;2023-04-06T04:59:53;1.30;99.90
2997;DHT22;1508;48.744;9.110;2023-04-06T05:02:39;1.40;99.90
2997;DHT22;1508;48.744;9.110;2023-04-06T05:05:24;1.40;99.90
2997;DHT22;1508;48.744;9.110;2023-04-06T05:08:11;1.50;99.90
2997;DHT22;1508;48.744;9.110;2023-04-06T05:10:57;1.60;99.90
2997;DHT22;1508;48.744;9.110;2023-04-06T05:13:42;1.70;99.90
2997;DHT22;1508;48.744;9.110;2023-04-06T05:16:28;1.70;99.90
2997;DHT22;1508;48.744;9.110;2023-04-06T05:19:14;1.80;99.90
2997;DHT22;1508;48.744;9.110;2023-04-06T05:22:00;1.90;99.90
2997;DHT22;1508;48.744;9.110;2023-04-06T05:24:45;1.90;99.90
2997;DHT22;1508;48.744;9.110;2023-04-06T05:27:31;2.00;99.90
2997;DHT22;1508;48.744;9.110;2023-04-06T05:30:17;2.10;99.90
2997;DHT22;1508;48.744;9.110;2023-04-06T05:33:03;2.30;99.90
2997;DHT22;1508;48.744;9.110;2023-04-06T05:35:48;2.50;99.90
2997;DHT22;1508;48.744;9.110;2023-04-06T05:38:34;2.80;99.90
2997;DHT22;1508;48.744;9.110;2023-04-06T05:41:20;3.00;99.90
2997;DHT22;1508;48.744;9.110;2023-04-06T05:44:06;3.30;99.90
2997;DHT22;1508;48.744;9.110;2023-04-06T05:46:52;3.60;99.90
2997;DHT22;1508;48.744;9.110;2023-04-06T05:49:37;4.10;99.90
2997;DHT22;1508;48.744;9.110;2023-04-06T05:52:23;4.70;99.90
2997;DHT22;1508;48.744;9.110;2023-04-06T05:55:09;5.30;99.90
2997;DHT22;1508;48.744;9.110;2023-04-06T05:57:55;6.00;99.90
2997;DHT22;1508;48.744;9.110;2023-04-06T06:00:41;6.60;99.90
2997;DHT22;1508;48.744;9.110;2023-04-06T06:03:26;7.70;99.90
2997;DHT22;1508;48.744;9.110;2023-04-06T06:06:12;8.70;99.90
2997;DHT22;1508;48.744;9.110;2023-04-06T06:08:58;9.10;99.90
2997;DHT22;1508;48.744;9.110;2023-04-06T06:11:43;9.10;99.90
2997;DHT22;1508;48.744;9.110;2023-04-06T06:14:29;8.70;99.90
2997;DHT22;1508;48.744;9.110;2023-04-06T06:17:15;8.10;99.90
2997;DHT22;1508;48.744;9.110;2023-04-06T06:20:01;7.60;99.90
2997;DHT22;1508;48.744;9.110;2023-04-06T06:22:46;7.20;99.90
2997;DHT22;1508;48.744;9.110;2023-04-06T06:25:32;7.20;99.90
2997;DHT22;1508;48.744;9.110;2023-04-06T06:28:18;6.90;99.90
2997;DHT22;1508;48.744;9.110;2023-04-06T06:31:04;6.80;99.90
2997;DHT22;1508;48.744;9.110;2023-04-06T06:33:49;6.80;99.90
2997;DHT22;1508;48.744;9.110;2023-04-06T06:36:35;6.70;99.90
2997;DHT22;1508;48.744;9.110;2023-04-06T06:39:21;6.70;99.90
2997;DHT22;1508;48.744;9.110;2023-04-06T06:42:07;6.50;99.90
2997;DHT22;1508;48.744;9.110;2023-04-06T06:44:53;6.60;99.90
2997;DHT22;1508;48.744;9.110;2023-04-06T06:47:39;6.40;99.90
2997;DHT22;1508;48.744;9.110;2023-04-06T06:50:25;6.40;99.90
2997;DHT22;1508;48.744;9.110;2023-04-06T06:53:10;6.50;99.90
2997;DHT22;1508;48.744;9.110;2023-04-06T06:55:56;6.50;99.90
2997;DHT22;1508;48.744;9.110;2023-04-06T06:58:42;6.50;99.90
2997;DHT22;1508;48.744;9.110;2023-04-06T07:01:28;6.70;99.90
2997;DHT22;1508;48.744;9.110;2023-04-06T07:04:14;6.80;99.90
2997;DHT22;1508;48.744;9.110;2023-04-06T07:06:59;6.90;99.90
2997;DHT22;1508;48.744;9.110;2023-04-06T07:09:45;6.80;99.90
2997;DHT22;1508;48.744;9.110;2023-04-06T07:12:31;7.00;99.90
2997;DHT22;1508;48.744;9.110;2023-04-06T07:15:17;7.10;99.90
2997;DHT22;1508;48.744;9.110;2023-04-06T07:18:02;7.20;99.90
2997;DHT22;1508;48.744;9.110;2023-04-06T07:20:48;7.20;99.90
2997;DHT22;1508;48.744;9.110;2023-04-06T07:23:34;7.50;99.90
2997;DHT22;1508;48.744;9.110;2023-04-06T07:26:20;7.50;99.90
2997;DHT22;1508;48.744;9.110;2023-04-06T07:29:05;7.70;99.90
2997;DHT22;1508;48.744;9.110;2023-04-06T07:31:51;7.70;99.90
2997;DHT22;1508;48.744;9.110;2023-04-06T07:34:37;8.00;99.90
2997;DHT22;1508;48.744;9.110;2023-04-06T07:37:23;8.10;99.90
2997;DHT22;1508;48.744;9.110;2023-04-06T07:40:08;8.40;99.90
2997;DHT22;1508;48.744;9.110;2023-04-06T07:42:54;8.50;99.90
2997;DHT22;1508;48.744;9.110;2023-04-06T07:45:40;8.50;99.90
2997;DHT22;1508;48.744;9.110;2023-04-06T07:48:26;8.70;99.90
2997;DHT22;1508;48.744;9.110;2023-04-06T07:51:11;8.50;99.90
2997;DHT22;1508;48.744;9.110;2023-04-06T07:53:57;8.50;99.90
2997;DHT22;1508;48.744;9.110;2023-04-06T07:56:43;8.60;99.90
2997;DHT22;1508;48.744;9.110;2023-04-06T07:59:29;8.70;99.90
2997;DHT22;1508;48.744;9.110;2023-04-06T08:02:14;8.90;99.90
2997;DHT22;1508;48.744;9.110;2023-04-06T08:05:00;9.20;99.90
2997;DHT22;1508;48.744;9.110;2023-04-06T08:07:46;9.20;99.90
2997;DHT22;1508;48.744;9.110;2023-04-06T08:10:32;9.10;99.90
2997;DHT22;1508;48.744;9.110;2023-04-06T08:13:17;9.20;99.90
2997;DHT22;1508;48.744;9.110;2023-04-06T08:16:03;9.30;99.90
2997;DHT22;1508;48.744;9.110;2023-04-06T08:18:49;9.50;99.90
2997;DHT22;1508;48.744;9.110;2023-04-06T08:21:35;9.70;99.90
2997;DHT22;1508;48.744;9.110;2023-04-06T08:24:21;9.90;99.90
2997;DHT22;1508;48.744;9.110;2023-04-06T08:27:07;9.90;99.90
2997;DHT22;1508;48.744;9.110;2023-04-06T08:29:52;9.80;99.90
2997;DHT22;1508;48.744;9.110;2023-04-06T08:32:38;9.80;99.90
2997;DHT22;1508;48.744;9.110;2023-04-06T08:35:24;10.00;99.90
2997;DHT22;1508;48.744;9.110;2023-04-06T08:38:10;10.00;99.90
2997;DHT22;1508;48.744;9.110;2023-04-06T08:40:55;10.10;99.90
2997;DHT22;1508;48.744;9.110;2023-04-06T08:43:49;9.90;99.90
2997;DHT22;1508;48.744;9.110;2023-04-06T08:46:35;9.80;99.90
2997;DHT22;1508;48.744;9.110;2023-04-06T08:49:20;10.00;99.90
2997;DHT22;1508;48.744;9.110;2023-04-06T08:52:06;10.30;99.90
2997;DHT22;1508;48.744;9.110;2023-04-06T08:54:52;10.40;98.70
2997;DHT22;1508;48.744;9.110;2023-04-06T08:57:38;10.50;99.90
2997;DHT22;1508;48.744;9.110;2023-04-06T09:00:24;10.90;99.90
2997;DHT22;1508;48.744;9.110;2023-04-06T09:03:11;11.00;99.90
2997;DHT22;1508;48.744;9.110;2023-04-06T09:05:57;11.30;99.90
2997;DHT22;1508;48.744;9.110;2023-04-06T09:08:43;11.60;99.90
2997;DHT22;1508;48.744;9.110;2023-04-06T09:11:29;11.30;98.90
2997;DHT22;1508;48.744;9.110;2023-04-06T09:14:35;11.10;99.90
2997;DHT22;1508;48.744;9.110;2023-04-06T09:17:22;11.20;98.90
2997;DHT22;1508;48.744;9.110;2023-04-06T09:20:08;11.30;97.40
2997;DHT22;1508;48.744;9.110;2023-04-06T09:22:54;11.30;98.10
2997;DHT22;1508;48.744;9.110;2023-04-06T09:25:40;11.20;93.80
2997;DHT22;1508;48.744;9.110;2023-04-06T09:28:26;11.30;92.50
2997;DHT22;1508;48.744;9.110;2023-04-06T09:31:13;11.10;92.10
2997;DHT22;1508;48.744;9.110;2023-04-06T09:33:59;11.30;93.50
2997;DHT22;1508;48.744;9.110;2023-04-06T09:36:45;11.40;92.60
2997;DHT22;1508;48.744;9.110;2023-04-06T09:39:30;11.40;92.70
2997;DHT22;1508;48.744;9.110;2023-04-06T09:42:25;11.50;92.70
2997;DHT22;1508;48.744;9.110;2023-04-06T09:45:11;11.50;92.00
2997;DHT22;1508;48.744;9.110;2023-04-06T09:47:57;11.50;92.60
2997;DHT22;1508;48.744;9.110;2023-04-06T09:50:42;11.60;93.00
2997;DHT22;1508;48.744;9.110;2023-04-06T09:53:28;11.80;93.00
2997;DHT22;1508;48.744;9.110;2023-04-06T09:56:17;11.80;91.90
2997;DHT22;1508;48.744;9.110;2023-04-06T09:59:08;11.70;92.40
2997;DHT22;1508;48.744;9.110;2023-04-06T10:01:54;11.80;92.00
2997;DHT22;1508;48.744;9.110;2023-04-06T10:04:43;11.90;91.90
2997;DHT22;1508;48.744;9.110;2023-04-06T10:07:29;11.90;92.40
2997;DHT22;1508;48.744;9.110;2023-04-06T10:10:15;12.10;91.90
2997;DHT22;1508;48.744;9.110;2023-04-06T10:13:01;12.10;91.50
2997;DHT22;1508;48.744;9.110;2023-04-06T10:15:47;12.00;90.50
2997;DHT22;1508;48.744;9.110;2023-04-06T10:18:33;11.90;90.30
2997;DHT22;1508;48.744;9.110;2023-04-06T10:21:20;12.10;90.60
2997;DHT22;1508;48.744;9.110;2023-04-06T10:24:08;11.80;89.10
2997;DHT22;1508;48.744;9.110;2023-04-06T10:27:12;12.10;90.40
2997;DHT22;1508;48.744;9.110;2023-04-06T10:30:02;12.10;90.40
2997;DHT22;1508;48.744;9.110;2023-04-06T10:32:48;12.20;88.60
2997;DHT22;1508;48.744;9.110;2023-04-06T10:35:37;12.30;87.00
2997;DHT22;1508;48.744;9.110;2023-04-06T10:38:33;11.90;88.10
2997;DHT22;1508;48.744;9.110;2023-04-06T10:41:18;12.10;88.60
2997;DHT22;1508;48.744;9.110;2023-04-06T10:44:04;12.20;87.60
2997;DHT22;1508;48.744;9.110;2023-04-06T10:46:55;12.00;87.60
2997;DHT22;1508;48.744;9.110;2023-04-06T10:49:40;12.10;88.10
2997;DHT22;1508;48.744;9.110;2023-04-06T10:52:26;12.00;88.40
2997;DHT22;1508;48.744;9.110;2023-04-06T10:55:16;12.00;89.60
2997;DHT22;1508;48.744;9.110;2023-04-06T10:58:01;12.30;89.30
2997;DHT22;1508;48.744;9.110;2023-04-06T11:00:48;12.40;86.90
2997;DHT22;1508;48.744;9.110;2023-04-06T11:03:42;12.30;89.10
2997;DHT22;1508;48.744;9.110;2023-04-06T11:06:29;12.70;89.40
2997;DHT22;1508;48.744;9.110;2023-04-06T11:09:27;12.50;86.90
2997;DHT22;1508;48.744;9.110;2023-04-06T11:12:26;12.50;85.90
2997;DHT22;1508;48.744;9.110;2023-04-06T11:15:12;12.60;86.10
2997;DHT22;1508;48.744;9.110;2023-04-06T11:17:58;12.80;86.90
2997;DHT22;1508;48.744;9.110;2023-04-06T11:20:48;12.80;86.80
2997;DHT22;1508;48.744;9.110;2023-04-06T11:23:34;13.10;87.00
2997;DHT22;1508;48.744;9.110;2023-04-06T11:26:20;13.20;85.70
2997;DHT22;1508;48.744;9.110;2023-04-06T11:29:06;12.90;85.70
2997;DHT22;1508;48.744;9.110;2023-04-06T11:32:01;12.70;83.80
2997;DHT22;1508;48.744;9.110;2023-04-06T11:34:48;12.80;85.70
2997;DHT22;1508;48.744;9.110;2023-04-06T11:37:33;13.20;87.10
2997;DHT22;1508;48.744;9.110;2023-04-06T11:40:22;13.10;83.50
2997;DHT22;1508;48.744;9.110;2023-04-06T11:43:10;13.10;86.10
2997;DHT22;1508;48.744;9.110;2023-04-06T11:46:00;13.30;85.20
2997;DHT22;1508;48.744;9.110;2023-04-06T11:48:46;13.20;82.80
2997;DHT22;1508;48.744;9.110;2023-04-06T11:51:35;12.90;82.10
2997;DHT22;1508;48.744;9.110;2023-04-06T11:54:34;12.90;83.10
2997;DHT22;1508;48.744;9.110;2023-04-06T11:57:20;13.10;84.20
2997;DHT22;1508;48.744;9.110;2023-04-06T12:00:07;13.10;84.60
2997;DHT22;1508;48.744;9.110;2023-04-06T12:02:53;13.30;85.10
2997;DHT22;1508;48.744;9.110;2023-04-06T12:05:39;13.10;81.50
2997;DHT22;1508;48.744;9.110;2023-04-06T12:08:24;13.20;84.30
2997;DHT22;1508;48.744;9.110;2023-04-06T12:11:11;13.00;80.80
2997;DHT22;1508;48.744;9.110;2023-04-06T12:13:57;12.90;83.10
2997;DHT22;1508;48.744;9.110;2023-04-06T12:16:42;13.10;81.80
2997;DHT22;1508;48.744;9.110;2023-04-06T12:19:28;13.60;82.80
2997;DHT22;1508;48.744;9.110;2023-04-06T12:22:14;13.70;82.10
2997;DHT22;1508;48.744;9.110;2023-04-06T12:25:00;13.70;83.30
2997;DHT22;1508;48.744;9.110;2023-04-06T12:27:45;13.60;81.00
2997;DHT22;1508;48.744;9.110;2023-04-06T12:30:31;13.50;81.10
2997;DHT22;1508;48.744;9.110;2023-04-06T12:33:17;13.50;79.60
2997;DHT22;1508;48.744;9.110;2023-04-06T12:36:03;13.40;78.30
2997;DHT22;1508;48.744;9.110;2023-04-06T12:38:48;13.50;78.00
2997;DHT22;1508;48.744;9.110;2023-04-06T12:41:34;13.10;77.00
2997;DHT22;1508;48.744;9.110;2023-04-06T12:44:20;13.20;78.20
2997;DHT22;1508;48.744;9.110;2023-04-06T12:47:06;13.10;77.50
2997;DHT22;1508;48.744;9.110;2023-04-06T12:49:52;13.10;78.10
2997;DHT22;1508;48.744;9.110;2023-04-06T12:52:37;13.00;77.00
2997;DHT22;1508;48.744;9.110;2023-04-06T12:55:23;12.90;77.40
2997;DHT22;1508;48.744;9.110;2023-04-06T12:58:09;12.80;76.30
2997;DHT22;1508;48.744;9.110;2023-04-06T13:00:55;12.80;77.30
2997;DHT22;1508;48.744;9.110;2023-04-06T13:03:41;12.90;76.90
2997;DHT22;1508;48.744;9.110;2023-04-06T13:06:27;12.90;77.50
2997;DHT22;1508;48.744;9.110;2023-04-06T13:09:12;13.30;79.20
2997;DHT22;1508;48.744;9.110;2023-04-06T13:11:58;13.60;75.80
2997;DHT22;1508;48.744;9.110;2023-04-06T13:14:44;13.80;75.90
2997;DHT22;1508;48.744;9.110;2023-04-06T13:17:30;14.00;76.30
2997;DHT22;1508;48.744;9.110;2023-04-06T13:20:15;13.90;74.40
2997;DHT22;1508;48.744;9.110;2023-04-06T13:23:01;14.10;74.60
2997;DHT22;1508;48.744;9.110;2023-04-06T13:25:47;14.20;72.50
2997;DHT22;1508;48.744;9.110;2023-04-06T13:28:33;14.60;73.90
2997;DHT22;1508;48.744;9.110;2023-04-06T13:31:19;14.90;74.50
2997;DHT22;1508;48.744;9.110;2023-04-06T13:34:05;14.70;71.60
2997;DHT22;1508;48.744;9.110;2023-04-06T13:36:51;14.70;73.40
2997;DHT22;1508;48.744;9.110;2023-04-06T13:39:36;14.50;71.80
2997;DHT22;1508;48.744;9.110;2023-04-06T13:42:22;14.50;73.40
2997;DHT22;1508;48.744;9.110;2023-04-06T13:45:08;14.50;70.60
2997;DHT22;1508;48.744;9.110;2023-04-06T13:47:54;14.40;71.70
2997;DHT22;1508;48.744;9.110;2023-04-06T13:50:39;14.50;72.30
2997;DHT22;1508;48.744;9.110;2023-04-06T13:53:25;14.50;72.30
2997;DHT22;1508;48.744;9.110;2023-04-06T13:56:11;14.70;72.30
2997;DHT22;1508;48.744;9.110;2023-04-06T13:58:57;15.10;71.70
2997;DHT22;1508;48.744;9.110;2023-04-06T14:01:42;15.30;73.40
2997;DHT22;1508;48.744;9.110;2023-04-06T14:04:28;15.10;69.20
2997;DHT22;1508;48.744;9.110;2023-04-06T14:07:14;15.30;72.40
2997;DHT22;1508;48.744;9.110;2023-04-06T14:10:00;15.20;70.10
2997;DHT22;1508;48.744;9.110;2023-04-06T14:12:46;15.10;67.80
2997;DHT22;1508;48.744;9.110;2023-04-06T14:15:31;15.10;68.20
2997;DHT22;1508;48.744;9.110;2023-04-06T14:18:17;14.50;68.00
2997;DHT22;1508;48.744;9.110;2023-04-06T14:21:03;14.40;69.80
2997;DHT22;1508;48.744;9.110;2023-04-06T14:23:49;14.80;69.30
2997;DHT22;1508;48.744;9.110;2023-04-06T14:26:35;14.60;67.00
2997;DHT22;1508;48.744;9.110;2023-04-06T14:29:21;14.70;68.90
2997;DHT22;1508;48.744;9.110;2023-04-06T14:32:06;14.90;69.10
2997;DHT22;1508;48.744;9.110;2023-04-06T14:34:52;15.00;67.60
2997;DHT22;1508;48.744;9.110;2023-04-06T14:37:38;15.30;70.50
2997;DHT22;1508;48.744;9.110;2023-04-06T14:40:24;15.20;68.90
2997;DHT22;1508;48.744;9.110;2023-04-06T14:43:10;14.80;68.60
2997;DHT22;1508;48.744;9.110;2023-04-06T14:45:59;14.20;68.60
2997;DHT22;1508;48.744;9.110;2023-04-06T14:48:44;13.80;68.90
2997;DHT22;1508;48.744;9.110;2023-04-06T14:51:30;13.90;69.50
2997;DHT22;1508;48.744;9.110;2023-04-06T14:54:16;13.80;68.90
2997;DHT22;1508;48.744;9.110;2023-04-06T14:57:02;13.90;67.80
2997;DHT22;1508;48.744;9.110;2023-04-06T14:59:48;13.80;68.50
2997;DHT22;1508;48.744;9.110;2023-04-06T15:02:33;13.80;71.40
2997;DHT22;1508;48.744;9.110;2023-04-06T15:05:19;13.30;71.30
2997;DHT22;1508;48.744;9.110;2023-04-06T15:08:05;12.60;71.70
2997;DHT22;1508;48.744;9.110;2023-04-06T15:10:51;12.90;71.40
2997;DHT22;1508;48.744;9.110;2023-04-06T15:13:37;13.00;72.60
2997;DHT22;1508;48.744;9.110;2023-04-06T15:16:23;13.00;71.90
2997;DHT22;1508;48.744;9.110;2023-04-06T15:19:08;13.30;72.90
2997;DHT22;1508;48.744;9.110;2023-04-06T15:21:54;13.30;73.30
2997;DHT22;1508;48.744;9.110;2023-04-06T15:24:40;12.90;73.70
2997;DHT22;1508;48.744;9.110;2023-04-06T15:27:26;12.60;72.80
2997;DHT22;1508;48.744;9.110;2023-04-06T15:30:11;12.30;72.90
2997;DHT22;1508;48.744;9.110;2023-04-06T15:32:58;12.30;73.80
2997;DHT22;1508;48.744;9.110;2023-04-06T15:35:44;12.30;72.80
2997;DHT22;1508;48.744;9.110;2023-04-06T15:38:30;12.20;73.10
2997;DHT22;1508;48.744;9.110;2023-04-06T15:41:16;12.40;73.80
2997;DHT22;1508;48.744;9.110;2023-04-06T15:44:02;12.60;73.50
2997;DHT22;1508;48.744;9.110;2023-04-06T15:46:48;12.50;75.00
2997;DHT22;1508;48.744;9.110;2023-04-06T15:49:33;12.50;75.40
2997;DHT22;1508;48.744;9.110;2023-04-06T15:52:19;12.40;76.40
2997;DHT22;1508;48.744;9.110;2023-04-06T15:55:06;12.20;76.80
2997;DHT22;1508;48.744;9.110;2023-04-06T15:57:52;12.30;77.80
2997;DHT22;1508;48.744;9.110;2023-04-06T16:00:38;12.10;77.30
2997;DHT22;1508;48.744;9.110;2023-04-06T16:03:23;12.00;77.70
2997;DHT22;1508;48.744;9.110;2023-04-06T16:06:09;11.90;78.00
2997;DHT22;1508;48.744;9.110;2023-04-06T16:08:55;11.90;77.50
2997;DHT22;1508;48.744;9.110;2023-04-06T16:11:40;11.80;77.70
2997;DHT22;1508;48.744;9.110;2023-04-06T16:14:26;11.60;78.00
2997;DHT22;1508;48.744;9.110;2023-04-06T16:17:12;11.70;78.30
2997;DHT22;1508;48.744;9.110;2023-04-06T16:19:58;11.60;79.60
2997;DHT22;1508;48.744;9.110;2023-04-06T16:22:43;11.50;78.90
2997;DHT22;1508;48.744;9.110;2023-04-06T16:25:29;11.30;78.70
2997;DHT22;1508;48.744;9.110;2023-04-06T16:28:15;11.30;79.30
2997;DHT22;1508;48.744;9.110;2023-04-06T16:31:01;11.20;79.20
2997;DHT22;1508;48.744;9.110;2023-04-06T16:33:48;11.20;79.90
2997;DHT22;1508;48.744;9.110;2023-04-06T16:36:33;11.10;80.00
2997;DHT22;1508;48.744;9.110;2023-04-06T16:39:19;11.10;80.10
2997;DHT22;1508;48.744;9.110;2023-04-06T16:42:05;11.10;80.40
2997;DHT22;1508;48.744;9.110;2023-04-06T16:44:51;11.20;81.10
2997;DHT22;1508;48.744;9.110;2023-04-06T16:47:37;11.20;81.40
2997;DHT22;1508;48.744;9.110;2023-04-06T16:50:22;11.10;81.50
2997;DHT22;1508;48.744;9.110;2023-04-06T16:53:08;10.90;81.40
2997;DHT22;1508;48.744;9.110;2023-04-06T16:55:54;10.70;82.60
2997;DHT22;1508;48.744;9.110;2023-04-06T16:58:39;10.70;82.80
2997;DHT22;1508;48.744;9.110;2023-04-06T17:01:27;10.70;83.30
2997;DHT22;1508;48.744;9.110;2023-04-06T17:04:13;10.70;84.00
2997;DHT22;1508;48.744;9.110;2023-04-06T17:06:58;10.60;85.90
2997;DHT22;1508;48.744;9.110;2023-04-06T17:09:44;10.50;86.50
2997;DHT22;1508;48.744;9.110;2023-04-06T17:12:30;10.40;86.80
2997;DHT22;1508;48.744;9.110;2023-04-06T17:15:16;10.40;86.30
2997;DHT22;1508;48.744;9.110;2023-04-06T17:18:01;10.30;84.20
2997;DHT22;1508;48.744;9.110;2023-04-06T17:20:47;10.20;83.30
2997;DHT22;1508;48.744;9.110;2023-04-06T17:23:33;10.20;83.20
2997;DHT22;1508;48.744;9.110;2023-04-06T17:26:19;10.10;82.00
2997;DHT22;1508;48.744;9.110;2023-04-06T17:29:05;10.10;82.60
2997;DHT22;1508;48.744;9.110;2023-04-06T17:31:50;10.10;82.50
2997;DHT22;1508;48.744;9.110;2023-04-06T17:34:36;10.10;81.80
2997;DHT22;1508;48.744;9.110;2023-04-06T17:37:22;10.10;81.90
2997;DHT22;1508;48.744;9.110;2023-04-06T17:40:08;10.00;80.80
2997;DHT22;1508;48.744;9.110;2023-04-06T17:42:53;10.00;80.50
2997;DHT22;1508;48.744;9.110;2023-04-06T17:45:39;9.90;80.60
2997;DHT22;1508;48.744;9.110;2023-04-06T17:48:25;9.90;80.00
2997;DHT22;1508;48.744;9.110;2023-04-06T17:51:12;9.90;80.50
2997;DHT22;1508;48.744;9.110;2023-04-06T17:53:58;9.90;80.40
2997;DHT22;1508;48.744;9.110;2023-04-06T17:56:44;9.80;80.90
2997;DHT22;1508;48.744;9.110;2023-04-06T17:59:29;9.80;81.60
2997;DHT22;1508;48.744;9.110;2023-04-06T18:02:15;9.80;82.00
2997;DHT22;1508;48.744;9.110;2023-04-06T18:05:01;9.80;82.40
2997;DHT22;1508;48.744;9.110;2023-04-06T18:07:47;9.70;82.50
2997;DHT22;1508;48.744;9.110;2023-04-06T18:10:35;9.70;82.90
2997;DHT22;1508;48.744;9.110;2023-04-06T18:13:21;9.70;83.40